createdAt,value
2022-10-24T00:01:32.518Z,99694.28
2022-10-24T00:05:34.392Z,99700.09
2022-10-24T00:09:36.521Z,99692.25
2022-10-24T00:13:38.796Z,99688.94
2022-10-24T00:17:40.651Z,99683.56
2022-10-24T00:21:42.594Z,99699.38
2022-10-24T00:25:44.465Z,99707.84
2022-10-24T00:29:46.351Z,99713.78
2022-10-24T00:33:48.324Z,99714.44
2022-10-24T00:37:50.166Z,99692.13
2022-10-24T00:41:54.448Z,99702.34
2022-10-24T00:46:01.200Z,99700.69
2022-10-24T00:50:12.993Z,99707.91
2022-10-24T00:54:16.291Z,99709.09
2022-10-24T00:58:18.460Z,99698.28
2022-10-24T01:02:21.835Z,99689.81
2022-10-24T01:06:50.238Z,99690.66
2022-10-24T01:11:01.705Z,99679.94
2022-10-24T01:15:23.538Z,99677.97
2022-10-24T01:19:51.114Z,99685.84
2022-10-24T01:24:29.660Z,99690.97
2022-10-24T01:28:45.942Z,99682.41
2022-10-24T01:32:50.048Z,99682.16
2022-10-24T01:37:06.448Z,99667.00
2022-10-24T01:41:10.363Z,99647.19
2022-10-24T01:45:15.739Z,99642.72
2022-10-24T01:49:19.999Z,99644.41
2022-10-24T01:53:24.830Z,99638.28
2022-10-24T01:57:28.885Z,99641.50
2022-10-24T02:01:37.419Z,99635.66
2022-10-24T02:05:43.740Z,99619.69
2022-10-24T02:09:53.371Z,99645.34
2022-10-24T02:14:27.391Z,99630.44
2022-10-24T02:18:29.866Z,99643.81
2022-10-24T02:23:01.394Z,99637.50
2022-10-24T02:27:07.306Z,99639.69
2022-10-24T02:31:17.580Z,99624.31
2022-10-24T02:35:23.745Z,99612.84
2022-10-24T02:39:28.159Z,99609.53
2022-10-24T02:43:33.730Z,99593.50
2022-10-24T02:47:35.674Z,99599.69
2022-10-24T02:51:40.065Z,99604.00
2022-10-24T02:55:44.167Z,99609.38
2022-10-24T02:59:46.100Z,99597.28
2022-10-24T03:03:48.095Z,99604.31
2022-10-24T03:07:50.044Z,99601.50
2022-10-24T03:11:51.934Z,99612.41
2022-10-24T03:15:54.854Z,99618.63
2022-10-24T03:19:56.679Z,99621.94
2022-10-24T03:24:01.585Z,99616.50
2022-10-24T03:28:03.599Z,99607.47
2022-10-24T03:32:06.480Z,99608.66
2022-10-24T03:36:08.773Z,99620.38
2022-10-24T03:40:11.249Z,99618.31
2022-10-24T03:44:13.285Z,99618.00
2022-10-24T03:48:15.443Z,99624.16
2022-10-24T03:52:17.291Z,99631.41
2022-10-24T03:56:21.970Z,99628.16
2022-10-24T04:00:23.847Z,99626.56
2022-10-24T04:04:25.969Z,99629.53
2022-10-24T04:08:27.824Z,99634.47
2022-10-24T04:12:29.629Z,99630.56
2022-10-24T04:16:34.194Z,99622.88
2022-10-24T04:20:36.184Z,99632.97
2022-10-24T04:24:39.430Z,99626.63
2022-10-24T04:28:41.474Z,99626.38
2022-10-24T04:32:43.609Z,99628.34
2022-10-24T04:36:45.760Z,99641.47
2022-10-24T04:40:52.882Z,99638.50
2022-10-24T04:44:55.073Z,99623.63
2022-10-24T04:48:56.957Z,99620.13
2022-10-24T04:52:58.804Z,99622.13
2022-10-24T04:57:10.842Z,99631.19
2022-10-24T05:01:12.784Z,99633.63
2022-10-24T05:05:15.191Z,99622.66
2022-10-24T05:09:17.224Z,99618.72
2022-10-24T05:13:19.044Z,99624.66
2022-10-24T05:17:20.906Z,99629.06
2022-10-24T05:21:22.797Z,99622.63
2022-10-24T05:25:25.165Z,99628.97
2022-10-24T05:29:27.112Z,99620.00
2022-10-24T05:33:29.413Z,99607.25
2022-10-24T05:41:33.570Z,99590.44
2022-10-24T05:45:35.865Z,99599.50
2022-10-24T05:49:38.135Z,99620.34
2022-10-24T05:53:40.158Z,99628.66
2022-10-24T05:57:42.567Z,99619.84
2022-10-24T06:01:45.179Z,99623.25
2022-10-24T06:05:47.220Z,99634.41
2022-10-24T06:09:49.035Z,99627.22
2022-10-24T06:13:51.001Z,99618.31
2022-10-24T06:17:52.908Z,99627.94
2022-10-24T06:21:54.780Z,99624.78
2022-10-24T06:25:56.802Z,99634.72
2022-10-24T06:29:58.940Z,99630.94
2022-10-24T06:34:10.699Z,99627.28
2022-10-24T06:38:12.989Z,99619.53
2022-10-24T06:42:14.937Z,99624.91
2022-10-24T06:46:17.711Z,99619.59
2022-10-24T06:50:19.688Z,99642.44
2022-10-24T06:55:00.471Z,99625.69
2022-10-24T06:59:04.465Z,99644.56
2022-10-24T07:03:06.490Z,99640.69
2022-10-24T07:07:19.391Z,99639.19
2022-10-24T07:11:21.574Z,99649.03
2022-10-24T07:15:23.436Z,99639.13
2022-10-24T07:19:26.511Z,99631.75
2022-10-24T07:23:31.757Z,99629.88
2022-10-24T07:27:34.060Z,99614.50
2022-10-24T07:31:36.716Z,99609.59
2022-10-24T07:35:43.044Z,99609.91
2022-10-24T07:39:46.773Z,99601.13
2022-10-24T07:44:23.523Z,99623.13
2022-10-24T07:48:25.597Z,99610.78
2022-10-24T07:52:54.739Z,99629.19
2022-10-24T07:57:11.840Z,99623.09
2022-10-24T08:13:20.090Z,99598.66
2022-10-24T08:17:23.484Z,99594.28
2022-10-24T08:21:28.593Z,99602.53
2022-10-24T08:25:30.490Z,99603.28
2022-10-24T08:29:42.776Z,99604.66
2022-10-24T08:33:45.943Z,99603.81
2022-10-24T08:37:47.998Z,99607.16
2022-10-24T08:42:00.304Z,99608.66
2022-10-24T08:46:25.580Z,99610.78
2022-10-24T08:50:33.589Z,99602.81
2022-10-24T08:54:56.538Z,99594.19
2022-10-24T08:58:58.526Z,99601.94
2022-10-24T09:03:44.045Z,99599.13
2022-10-24T09:07:49.147Z,99596.31
2022-10-24T09:12:02.697Z,99586.28
2022-10-24T09:16:33.274Z,99591.50
2022-10-24T09:20:35.467Z,99580.44
2022-10-24T09:24:45.617Z,99571.91
2022-10-24T09:28:48.106Z,99586.97
2022-10-24T09:32:50.236Z,99584.34
2022-10-24T09:37:59.003Z,99573.94
2022-10-24T09:42:08.355Z,99572.09
2022-10-24T09:52:27.923Z,99599.78
2022-10-24T10:07:54.725Z,99587.78
2022-10-24T10:12:03.606Z,99574.13
2022-10-24T10:16:15.191Z,99576.34
2022-10-24T10:20:41.653Z,99561.00
2022-10-24T10:24:44.230Z,99553.59
2022-10-24T10:29:18.284Z,99543.97
2022-10-24T10:33:30.154Z,99536.50
2022-10-24T10:37:35.887Z,99550.88
2022-10-24T11:21:35.525Z,99472.06
2022-10-24T11:25:54.610Z,99497.28
2022-10-24T11:30:06.927Z,99486.09
2022-10-24T11:34:21.977Z,99510.31
2022-10-24T11:38:24.179Z,99490.28
2022-10-24T11:43:06.184Z,99486.41
2022-10-24T11:47:24.487Z,99484.53
2022-10-24T11:51:45.872Z,99486.16
2022-10-24T11:56:12.179Z,99512.19
2022-10-24T12:00:26.669Z,99503.72
2022-10-24T12:05:19.382Z,99497.56
2022-10-24T12:09:36.927Z,99484.53
2022-10-24T12:13:47.577Z,99454.13
2022-10-24T12:24:29.680Z,99505.31
2022-10-24T12:47:30.828Z,99489.56
2022-10-24T12:56:43.544Z,99487.41
2022-10-24T13:01:10.652Z,99466.66
2022-10-24T13:05:52.878Z,99470.84
2022-10-24T13:10:26.081Z,99470.03
2022-10-24T13:14:59.931Z,99465.03
2022-10-24T13:19:19.923Z,99455.69
2022-10-24T13:23:27.038Z,99462.47
2022-10-24T13:27:31.361Z,99464.16
2022-10-24T13:31:33.240Z,99481.84
2022-10-24T13:35:35.573Z,99481.91
2022-10-24T13:39:42.425Z,99487.00
2022-10-24T13:43:48.444Z,99485.81
2022-10-24T13:48:01.107Z,99485.47
2022-10-24T13:52:37.186Z,99497.19
2022-10-24T13:56:40.277Z,99505.00
2022-10-24T14:00:58.737Z,99491.94
2022-10-24T14:06:02.002Z,99495.34
2022-10-24T14:10:13.534Z,99512.34
2022-10-24T14:14:31.713Z,99500.34
2022-10-24T14:18:37.159Z,99499.19
2022-10-24T14:22:40.538Z,99501.41
2022-10-24T14:26:42.769Z,99510.31
2022-10-24T14:31:20.680Z,99501.84
2022-10-24T14:36:11.326Z,99500.22
2022-10-24T14:40:17.190Z,99510.78
2022-10-24T14:44:20.291Z,99514.06
2022-10-24T14:48:25.049Z,99516.50
2022-10-24T14:57:17.551Z,99527.78
2022-10-24T15:01:19.863Z,99530.66
2022-10-24T15:05:24.589Z,99535.41
2022-10-24T15:09:26.817Z,99528.47
2022-10-24T15:13:34.694Z,99523.75
2022-10-24T15:17:44.385Z,99542.75
2022-10-24T15:21:46.504Z,99529.75
2022-10-24T15:26:10.454Z,99540.31
2022-10-24T15:30:18.137Z,99551.75
2022-10-24T15:34:22.400Z,99563.56
2022-10-24T15:38:24.588Z,99556.63
2022-10-24T15:43:44.050Z,99563.13
2022-10-24T16:31:48.546Z,99574.09
2022-10-24T16:45:23.532Z,99569.19
2022-10-24T16:49:28.642Z,99573.66
2022-10-24T16:55:08.060Z,99579.56
2022-10-24T17:42:24.548Z,99575.50
2022-10-24T17:46:31.579Z,99593.13
2022-10-24T17:51:21.200Z,99585.72
2022-10-24T17:55:45.571Z,99577.56
2022-10-24T18:20:39.922Z,99613.59
2022-10-24T18:24:50.226Z,99619.81
2022-10-24T18:52:32.606Z,99638.97
2022-10-24T19:20:26.439Z,99636.56
2022-10-24T19:32:16.080Z,99604.38
2022-10-24T20:00:14.962Z,99640.72
2022-10-24T21:10:40.164Z,99644.41
2022-10-24T21:14:54.097Z,99671.81
2022-10-24T21:19:15.569Z,99662.59
2022-10-24T21:23:43.721Z,99654.34
2022-10-24T21:27:48.976Z,99669.16
2022-10-24T21:31:57.649Z,99662.00
2022-10-24T21:36:35.258Z,99694.66
2022-10-24T21:40:37.201Z,99661.81
2022-10-24T21:45:21.006Z,99683.34
2022-10-24T21:49:26.000Z,99674.53
2022-10-24T21:53:29.394Z,99680.25
2022-10-24T21:57:31.305Z,99686.22
2022-10-24T22:01:38.436Z,99703.97
2022-10-24T22:05:40.549Z,99688.69
2022-10-24T22:09:42.607Z,99707.09
2022-10-24T22:13:49.673Z,99679.50
2022-10-24T22:17:51.565Z,99679.88
2022-10-24T22:21:56.258Z,99689.13
2022-10-24T22:26:30.376Z,99686.69
2022-10-24T22:31:00.678Z,99685.06
2022-10-24T22:35:23.954Z,99708.25
2022-10-24T22:39:26.785Z,99701.47
2022-10-24T22:43:34.297Z,99691.28
2022-10-24T22:48:26.038Z,99716.16
2022-10-24T22:52:28.674Z,99718.72
2022-10-24T22:56:33.653Z,99710.47
2022-10-24T23:00:37.381Z,99717.06
2022-10-24T23:04:52.628Z,99722.69
2022-10-24T23:19:36.636Z,99736.47
2022-10-24T23:23:39.106Z,99739.16
2022-10-24T23:27:45.985Z,99744.78
2022-10-24T23:31:48.432Z,99754.25
2022-10-24T23:36:00.397Z,99763.63
2022-10-24T23:40:37.178Z,99759.34
2022-10-24T23:44:39.521Z,99774.56
2022-10-24T23:49:03.026Z,99751.94
2022-10-24T23:53:27.654Z,99760.03
2022-10-24T23:57:29.988Z,99766.56
